Time;durP1;ratioP1;P1;durP2;ratioP2;P2;SDS_P1;SDS_P2;PMS_P1;PMS_P2;Temp;Humidity;BMP_temperature;BMP_pressure;BME280_temperature;BME280_humidity;BME280_pressure;Samples;Min_cycle;Max_cycle;Signal;HPM_P1;HPM_P2
2022/07/02 00:01:46;;;;;;;;;;;;;;;;;;4880841;29;19934;-86
2022/07/02 00:04:24;;;;;;;;;;;;;;;;;;4887180;29;20375;-85
2022/07/02 00:06:51;;;;;;;;;;;;;;;;;;4851134;29;19956;-86
2022/07/02 00:09:18;;;;;;;;;;;;;;;;;;4856184;29;19931;-86
2022/07/02 00:11:46;;;;;;;;;;;;;;;;;;4876890;29;19982;-85
2022/07/02 00:14:13;;;;;;;;;;;;;;;;;;4878068;29;19935;-85
2022/07/02 00:16:40;;;;;;;;;;;;;;;;;;4892899;29;20295;-85
2022/07/02 00:19:07;;;;;;;;;;;;;;;;;;4877360;29;19938;-85
2022/07/02 00:21:39;;;;;;;;;;;;;;;;;;4898401;29;19996;-85
2022/07/02 00:24:07;;;;;;;;;;;;;;;;;;4878032;29;19923;-85
2022/07/02 00:26:34;;;;;;;;;;;;;;;;;;4878760;29;20397;-85
2022/07/02 00:29:02;;;;;;;;;;;;;;;;;;4864898;29;19931;-86
2022/07/02 00:31:29;;;;;;;;;;;;;;;;;;4887918;29;19938;-85
2022/07/02 00:33:56;;;;;;;;;;;;;;;;;;4858389;29;20379;-85
2022/07/02 00:36:24;;;;;;;;;;;;;;;;;;4890446;29;19937;-85
2022/07/02 00:38:51;;;;;;;;;;;;;;;;;;4869689;29;20444;-85
2022/07/02 00:41:18;;;;;;;;;;;;;;;;;;4881588;29;19931;-85
2022/07/02 00:43:45;;;;;;;;;;;;;;;;;;4898482;29;20264;-85
2022/07/02 00:46:13;;;;;;;;;;;;;;;;;;4893295;29;19931;-85
2022/07/02 00:48:40;;;;;;;;;;;;;;;;;;4892969;29;19987;-86
2022/07/02 00:51:07;;;;;;;;;;;;;;;;;;4896771;29;20014;-85
2022/07/02 00:53:34;;;;;;;;;;;;;;;;;;4880821;29;19975;-85
2022/07/02 00:56:00;;;;;;;;;;;;;;;;;;4872506;29;19985;-85
2022/07/02 00:58:27;;;;;;;;;;;;;;;;;;4881533;29;19924;-85
2022/07/02 01:00:54;;;;;;;;;;;;;;;;;;4868740;29;19932;-85
2022/07/02 01:03:22;;;;;;;;;;;;;;;;;;4890963;29;20039;-85
2022/07/02 01:05:49;;;;;;;;;;;;;;;;;;4854424;29;19935;-85
2022/07/02 01:11:13;;;;;;;;;;;;;;;;;;4872971;29;19974;-85
2022/07/02 01:13:40;;;;;;;;;;;;;;;;;;4875745;29;20003;-86
2022/07/02 01:16:07;;;;;;;;;;;;;;;;;;4859941;29;20282;-85
2022/07/02 01:18:35;;;;;;;;;;;;;;;;;;4868103;29;19934;-85
2022/07/02 01:21:02;;;;;;;;;;;;;;;;;;4890562;29;19974;-85
2022/07/02 01:23:29;;;;;;;;;;;;;;;;;;4876770;29;19927;-85
2022/07/02 01:25:56;;;;;;;;;;;;;;;;;;4886202;29;19976;-85
2022/07/02 01:28:23;;;;;;;;;;;;;;;;;;4898512;29;19932;-86
2022/07/02 01:30:51;;;;;;;;;;;;;;;;;;4887824;29;19927;-85
2022/07/02 01:33:18;;;;;;;;;;;;;;;;;;4894857;29;20761;-85
2022/07/02 01:35:46;;;;;;;;;;;;;;;;;;4872844;29;19987;-86
2022/07/02 01:38:13;;;;;;;;;;;;;;;;;;4878601;29;19927;-86
2022/07/02 01:40:40;;;;;;;;;;;;;;;;;;4869899;29;19931;-85
2022/07/02 01:43:08;;;;;;;;;;;;;;;;;;4875574;29;19952;-85
2022/07/02 01:45:35;;;;;;;;;;;;;;;;;;4878710;29;19931;-85
2022/07/02 01:48:02;;;;;;;;;;;;;;;;;;4871724;29;20350;-85
2022/07/02 01:50:29;;;;;;;;;;;;;;;;;;4874633;29;19927;-85
2022/07/02 01:52:57;;;;;;;;;;;;;;;;;;4885878;29;20588;-85
2022/07/02 01:55:24;;;;;;;;;;;;;;;;;;4874211;29;20400;-85
2022/07/02 01:57:52;;;;;;;;;;;;;;;;;;4886309;29;19933;-85
2022/07/02 02:00:19;;;;;;;;;;;;;;;;;;4875436;29;19934;-86
2022/07/02 02:02:46;;;;;;;;;;;;;;;;;;4872995;29;20072;-85
2022/07/02 02:05:12;;;;;;;;;;;;;;;;;;4888897;29;20375;-85
2022/07/02 02:07:40;;;;;;;;;;;;;;;;;;4891923;29;20028;-85
2022/07/02 02:10:07;;;;;;;;;;;;;;;;;;4890388;29;19930;-85
2022/07/02 02:12:33;;;;;;;;;;;;;;;;;;4850408;29;20429;-85
2022/07/02 02:14:59;;;;;;;;;;;;;;;;;;4834205;29;20058;-85
2022/07/02 02:17:32;;;;;;;;;;;;;;;;;;4841547;29;19988;-85
2022/07/02 02:19:59;;;;;;;;;;;;;;;;;;4843140;29;19943;-85
2022/07/02 02:22:27;;;;;;;;;;;;;;;;;;4850859;29;19943;-85
2022/07/02 02:24:53;;;;;;;;;;;;;;;;;;4842597;29;20462;-85
2022/07/02 02:27:21;;;;;;;;;;;;;;;;;;4833477;29;19941;-85
2022/07/02 02:30:03;;;;;;;;;;;;;;;;;;4831574;29;20442;-85
2022/07/02 02:32:30;;;;;;;;;;;;;;;;;;4845140;29;19975;-85
2022/07/02 02:34:57;;;;;;;;;;;;;;;;;;4811334;29;19923;-85
2022/07/02 02:37:25;;;;;;;;;;;;;;;;;;4846545;29;19928;-85
2022/07/02 02:39:52;;;;;;;;;;;;;;;;;;4830488;29;21840;-85
2022/07/02 02:42:19;;;;;;;;;;;;;;;;;;4842622;29;20026;-85
2022/07/02 02:44:47;;;;;;;;;;;;;;;;;;4872993;29;20384;-85
2022/07/02 02:47:14;;;;;;;;;;;;;;;;;;4867308;29;19973;-85
2022/07/02 02:49:41;;;;;;;;;;;;;;;;;;4873764;29;19931;-86
2022/07/02 02:52:07;;;;;;;;;;;;;;;;;;4875934;29;19931;-85
2022/07/02 02:54:34;;;;;;;;;;;;;;;;;;4880339;29;19953;-85
2022/07/02 02:57:00;;;;;;;;;;;;;;;;;;4862013;28;20297;-85
2022/07/02 02:59:26;;;;;;;;;;;;;;;;;;4881174;29;19927;-85
2022/07/02 03:01:54;;;;;;;;;;;;;;;;;;4870461;29;20297;-85
2022/07/02 03:04:21;;;;;;;;;;;;;;;;;;4869649;29;20154;-85
2022/07/02 03:06:48;;;;;;;;;;;;;;;;;;4865761;29;19966;-85
2022/07/02 03:09:15;;;;;;;;;;;;;;;;;;4862546;29;20277;-85
2022/07/02 03:11:41;;;;;;;;;;;;;;;;;;4883556;29;19935;-85
2022/07/02 03:14:08;;;;;;;;;;;;;;;;;;4889375;29;20681;-85
2022/07/02 03:16:35;;;;;;;;;;;;;;;;;;4872199;29;20297;-85
2022/07/02 03:19:02;;;;;;;;;;;;;;;;;;4879151;29;20017;-85
2022/07/02 03:21:29;;;;;;;;;;;;;;;;;;4889862;29;19935;-85
2022/07/02 03:23:57;;;;;;;;;;;;;;;;;;4873495;29;19927;-85
2022/07/02 03:26:24;;;;;;;;;;;;;;;;;;4873169;29;19931;-85
2022/07/02 03:28:52;;;;;;;;;;;;;;;;;;4888453;29;19939;-86
2022/07/02 03:31:19;;;;;;;;;;;;;;;;;;4875799;29;20371;-85
2022/07/02 03:33:46;;;;;;;;;;;;;;;;;;4871443;29;19923;-86
2022/07/02 03:36:12;;;;;;;;;;;;;;;;;;4882679;29;19937;-85
2022/07/02 03:38:45;;;;;;;;;;;;;;;;;;4872797;29;20026;-85
2022/07/02 03:41:12;;;;;;;;;;;;;;;;;;4867013;29;20013;-85
2022/07/02 03:43:39;;;;;;;;;;;;;;;;;;4876272;29;19983;-85
2022/07/02 03:46:06;;;;;;;;;;;;;;;;;;4874756;29;19931;-85
2022/07/02 03:48:33;;;;;;;;;;;;;;;;;;4875403;29;19927;-85
2022/07/02 03:51:01;;;;;;;;;;;;;;;;;;4870515;29;19935;-85
2022/07/02 03:53:28;;;;;;;;;;;;;;;;;;4849817;29;20026;-85
2022/07/02 03:55:55;;;;;;;;;;;;;;;;;;4876207;29;19937;-85
2022/07/02 03:58:22;;;;;;;;;;;;;;;;;;4865433;29;19938;-86
2022/07/02 04:00:48;;;;;;;;;;;;;;;;;;4855798;29;19942;-85
2022/07/02 04:03:15;;;;;;;;;;;;;;;;;;4874831;29;19927;-85
2022/07/02 04:05:42;;;;;;;;;;;;;;;;;;4857838;29;19958;-86
2022/07/02 04:08:10;;;;;;;;;;;;;;;;;;4865676;29;19938;-85
2022/07/02 04:10:40;;;;;;;;;;;;;;;;;;4867377;29;19931;-85
2022/07/02 04:13:08;;;;;;;;;;;;;;;;;;4864792;29;19929;-85
2022/07/02 04:15:36;;;;;;;;;;;;;;;;;;4866229;29;19931;-85
2022/07/02 04:18:03;;;;;;;;;;;;;;;;;;4848811;29;20017;-86
2022/07/02 04:20:32;;;;;;;;;;;;;;;;;;4869814;29;19931;-85
2022/07/02 04:22:59;;;;;;;;;;;;;;;;;;4864459;29;19931;-85
2022/07/02 04:25:26;;;;;;;;;;;;;;;;;;4871077;29;20370;-85
2022/07/02 04:27:54;;;;;;;;;;;;;;;;;;4858775;29;19933;-85
2022/07/02 04:30:21;;;;;;;;;;;;;;;;;;4868676;29;20598;-85
2022/07/02 04:32:48;;;;;;;;;;;;;;;;;;4855822;28;19942;-85
2022/07/02 04:35:15;;;;;;;;;;;;;;;;;;4868445;29;20496;-86
2022/07/02 04:37:41;;;;;;;;;;;;;;;;;;4880895;29;19927;-85
2022/07/02 04:40:09;;;;;;;;;;;;;;;;;;4865872;29;19927;-85
2022/07/02 04:42:36;;;;;;;;;;;;;;;;;;4886061;29;20029;-84
2022/07/02 04:45:03;;;;;;;;;;;;;;;;;;4877763;29;19927;-85
2022/07/02 04:47:30;;;;;;;;;;;;;;;;;;4870910;29;19927;-86
2022/07/02 04:49:58;;;;;;;;;;;;;;;;;;4860833;29;19946;-85
2022/07/02 04:52:25;;;;;;;;;;;;;;;;;;4886281;29;19936;-85
2022/07/02 04:54:52;;;;;;;;;;;;;;;;;;4879740;29;19941;-85
2022/07/02 04:57:19;;;;;;;;;;;;;;;;;;4881910;29;19927;-85
2022/07/02 04:59:46;;;;;;;;;;;;;;;;;;4860242;29;19931;-85
2022/07/02 05:02:13;;;;;;;;;;;;;;;;;;4867359;29;19966;-85
2022/07/02 05:04:40;;;;;;;;;;;;;;;;;;4862029;29;19971;-85
2022/07/02 05:07:07;;;;;;;;;;;;;;;;;;4864595;29;19949;-86
2022/07/02 05:09:34;;;;;;;;;;;;;;;;;;4870000;29;20026;-85
2022/07/02 05:12:01;;;;;;;;;;;;;;;;;;4880090;29;20298;-85
2022/07/02 05:14:28;;;;;;;;;;;;;;;;;;4867098;29;20370;-85
2022/07/02 05:16:55;;;;;;;;;;;;;;;;;;4863264;29;19938;-85
2022/07/02 05:19:22;;;;;;;;;;;;;;;;;;4856400;29;19936;-85
2022/07/02 05:21:49;;;;;;;;;;;;;;;;;;4860624;29;19938;-85
2022/07/02 05:24:17;;;;;;;;;;;;;;;;;;4871157;29;19934;-85
2022/07/02 05:26:44;;;;;;;;;;;;;;;;;;4863098;29;19931;-86
2022/07/02 05:29:11;;;;;;;;;;;;;;;;;;4867645;29;19934;-86
2022/07/02 05:31:42;;;;;;;;;;;;;;;;;;4867938;29;19961;-85
2022/07/02 05:34:08;;;;;;;;;;;;;;;;;;4882021;29;20914;-86
2022/07/02 05:36:33;;;;;;;;;;;;;;;;;;4851205;29;19923;-85
2022/07/02 05:39:01;;;;;;;;;;;;;;;;;;4852710;29;19938;-85
2022/07/02 05:41:28;;;;;;;;;;;;;;;;;;4865277;29;19927;-85
2022/07/02 05:43:54;;;;;;;;;;;;;;;;;;4891634;29;19979;-86
2022/07/02 05:46:22;;;;;;;;;;;;;;;;;;4874436;29;19957;-85
2022/07/02 05:48:49;;;;;;;;;;;;;;;;;;4853391;29;19958;-85
2022/07/02 05:51:16;;;;;;;;;;;;;;;;;;4875227;29;20017;-85
2022/07/02 05:53:42;;;;;;;;;;;;;;;;;;4857783;29;19935;-86
2022/07/02 05:56:11;;;;;;;;;;;;;;;;;;4873929;29;22231;-85
2022/07/02 05:58:40;;;;;;;;;;;;;;;;;;4866658;29;20282;-85
2022/07/02 06:01:19;;;;;;;;;;;;;;;;;;4887236;29;19923;-86
2022/07/02 06:03:45;;;;;;;;;;;;;;;;;;4855436;29;20057;-86
2022/07/02 06:08:57;;;;;;;;;;;;;;;;;;4855797;29;19923;-87
2022/07/02 06:11:24;;;;;;;;;;;;;;;;;;4856472;29;19937;-86
2022/07/02 06:13:51;;;;;;;;;;;;;;;;;;4868262;29;19987;-86
2022/07/02 06:16:18;;;;;;;;;;;;;;;;;;4851976;29;19931;-86
2022/07/02 06:18:45;;;;;;;;;;;;;;;;;;4848095;29;20766;-86
2022/07/02 06:21:12;;;;;;;;;;;;;;;;;;4862754;29;19938;-86
2022/07/02 06:23:38;;;;;;;;;;;;;;;;;;4857129;29;20006;-86
2022/07/02 06:26:04;;;;;;;;;;;;;;;;;;4882618;29;19959;-87
2022/07/02 06:28:32;;;;;;;;;;;;;;;;;;4884461;29;20038;-86
2022/07/02 06:30:58;;;;;;;;;;;;;;;;;;4882972;29;19935;-87
2022/07/02 06:33:25;;;;;;;;;;;;;;;;;;4874823;29;20330;-86
2022/07/02 06:35:50;;;;;;;;;;;;;;;;;;4869728;29;19967;-86
2022/07/02 06:38:16;;;;;;;;;;;;;;;;;;4887132;29;20041;-86
2022/07/02 06:40:53;;;;;;;;;;;;;;;;;;4880506;29;19931;-87
2022/07/02 06:43:23;;;;;;;;;;;;;;;;;;4868026;29;19986;-87
2022/07/02 06:45:54;;;;;;;;;;;;;;;;;;4869905;29;19975;-87
2022/07/02 06:48:20;;;;;;;;;;;;;;;;;;4870479;29;19939;-87
2022/07/02 06:50:47;;;;;;;;;;;;;;;;;;4858858;29;20434;-87
2022/07/02 06:53:15;;;;;;;;;;;;;;;;;;4863181;29;19928;-87
2022/07/02 06:55:41;;;;;;;;;;;;;;;;;;4832932;29;19954;-88
2022/07/02 06:58:09;;;;;;;;;;;;;;;;;;4854677;29;19932;-87
2022/07/02 07:00:36;;;;;;;;;;;;;;;;;;4844884;29;19924;-85
2022/07/02 07:03:03;;;;;;;;;;;;;;;;;;4848380;29;20038;-85
2022/07/02 07:05:32;;;;;;;;;;;;;;;;;;4870606;29;19939;-85
2022/07/02 07:07:59;;;;;;;;;;;;;;;;;;4867129;29;19951;-85
2022/07/02 07:10:26;;;;;;;;;;;;;;;;;;4869720;29;20446;-85
2022/07/02 07:12:52;;;;;;;;;;;;;;;;;;4864057;29;20614;-84
2022/07/02 07:15:19;;;;;;;;;;;;;;;;;;4870907;29;19932;-84
2022/07/02 07:17:45;;;;;;;;;;;;;;;;;;4855846;29;19996;-85
2022/07/02 07:20:16;;;;;;;;;;;;;;;;;;4876256;29;20422;-85
2022/07/02 07:22:42;;;;;;;;;;;;;;;;;;4844667;29;20410;-84
2022/07/02 07:25:09;;;;;;;;;;;;;;;;;;4849629;29;19928;-84
2022/07/02 07:27:35;;;;;;;;;;;;;;;;;;4844038;29;19996;-85
2022/07/02 07:30:01;;;;;;;;;;;;;;;;;;4843136;29;20158;-85
2022/07/02 07:32:27;;;;;;;;;;;;;;;;;;4847554;29;20631;-84
2022/07/02 07:34:53;;;;;;;;;;;;;;;;;;4836342;29;19932;-84
2022/07/02 07:37:19;;;;;;;;;;;;;;;;;;4846578;29;19934;-85
2022/07/02 07:39:46;;;;;;;;;;;;;;;;;;4838984;29;19963;-85
2022/07/02 07:42:12;;;;;;;;;;;;;;;;;;4825909;29;20402;-85
2022/07/02 07:44:39;;;;;;;;;;;;;;;;;;4829448;29;19938;-86
2022/07/02 07:47:08;;;;;;;;;;;;;;;;;;4843043;29;19980;-87
2022/07/02 07:49:36;;;;;;;;;;;;;;;;;;4826809;29;20357;-85
2022/07/02 07:52:01;;;;;;;;;;;;;;;;;;4842793;29;19959;-86
2022/07/02 07:54:27;;;;;;;;;;;;;;;;;;4855238;29;19935;-86
2022/07/02 07:56:54;;;;;;;;;;;;;;;;;;4856076;29;19938;-86
2022/07/02 07:59:20;;;;;;;;;;;;;;;;;;4863002;29;20483;-86
2022/07/02 08:01:46;;;;;;;;;;;;;;;;;;4873858;29;19923;-86
2022/07/02 08:04:12;;;;;;;;;;;;;;;;;;4891838;29;19942;-86
2022/07/02 08:06:37;;;;;;;;;;;;;;;;;;4865101;29;19939;-86
2022/07/02 08:09:03;;;;;;;;;;;;;;;;;;4876342;29;19977;-86
2022/07/02 08:11:29;;;;;;;;;;;;;;;;;;4862178;29;19946;-85
2022/07/02 08:13:55;;;;;;;;;;;;;;;;;;4875007;29;19987;-86
2022/07/02 08:16:21;;;;;;;;;;;;;;;;;;4880157;29;20430;-87
2022/07/02 08:18:47;;;;;;;;;;;;;;;;;;4874912;29;19923;-86
2022/07/02 08:21:13;;;;;;;;;;;;;;;;;;4878378;29;19934;-86
2022/07/02 08:23:39;;;;;;;;;;;;;;;;;;4860042;29;19995;-86
2022/07/02 08:26:05;;;;;;;;;;;;;;;;;;4878042;29;20015;-86
2022/07/02 08:28:31;;;;;;;;;;;;;;;;;;4879590;29;20254;-86
2022/07/02 08:30:58;;;;;;;;;;;;;;;;;;4857958;29;20293;-85
2022/07/02 08:33:24;;;;;;;;;;;;;;;;;;4878829;29;19931;-86
2022/07/02 08:35:50;;;;;;;;;;;;;;;;;;4888489;29;19931;-86
2022/07/02 08:38:16;;;;;;;;;;;;;;;;;;4879717;29;19983;-86
2022/07/02 08:40:43;;;;;;;;;;;;;;;;;;4882749;29;19935;-84
2022/07/02 08:43:09;;;;;;;;;;;;;;;;;;4884653;29;19923;-86
2022/07/02 08:45:36;;;;;;;;;;;;;;;;;;4886907;29;19938;-85
2022/07/02 08:48:02;;;;;;;;;;;;;;;;;;4864041;29;19931;-85
2022/07/02 08:50:28;;;;;;;;;;;;;;;;;;4882674;29;19927;-85
2022/07/02 08:52:54;;;;;;;;;;;;;;;;;;4873749;29;19997;-86
2022/07/02 08:55:20;;;;;;;;;;;;;;;;;;4850828;29;20446;-85
2022/07/02 08:57:46;;;;;;;;;;;;;;;;;;4846005;29;22190;-85
2022/07/02 09:00:12;;;;;;;;;;;;;;;;;;4873310;29;20390;-85
2022/07/02 09:02:38;;;;;;;;;;;;;;;;;;4870520;29;19931;-85
2022/07/02 09:05:04;;;;;;;;;;;;;;;;;;4869061;29;19934;-86
2022/07/02 09:07:30;;;;;;;;;;;;;;;;;;4857470;29;20505;-86
2022/07/02 09:09:56;;;;;;;;;;;;;;;;;;4849311;29;19939;-86
2022/07/02 09:12:23;;;;;;;;;;;;;;;;;;4870010;29;20421;-86
2022/07/02 09:14:49;;;;;;;;;;;;;;;;;;4824817;29;19931;-87
2022/07/02 09:17:15;;;;;;;;;;;;;;;;;;4864774;29;21011;-86
2022/07/02 09:19:41;;;;;;;;;;;;;;;;;;4840090;29;19931;-86
2022/07/02 09:22:07;;;;;;;;;;;;;;;;;;4846688;29;20053;-87
2022/07/02 09:27:07;;;;;;;;;;;;;;;;;;4888559;29;19935;-80
2022/07/02 09:29:33;;;;;;;;;;;;;;;;;;4851473;29;19932;-80
2022/07/02 09:32:06;;;;;;;;;;;;;;;;;;4864128;29;19940;-80
2022/07/02 09:34:32;;;;;;;;;;;;;;;;;;4874031;29;19927;-80
2022/07/02 09:36:58;;;;;;;;;;;;;;;;;;4889386;29;19938;-81
2022/07/02 09:39:25;;;;;;;;;;;;;;;;;;4877537;29;19963;-79
2022/07/02 09:41:51;;;;;;;;;;;;;;;;;;4875796;29;19934;-79
2022/07/02 09:44:17;;;;;;;;;;;;;;;;;;4897064;29;19938;-80
2022/07/02 09:46:43;;;;;;;;;;;;;;;;;;4869352;29;19931;-80
2022/07/02 09:49:11;;;;;;;;;;;;;;;;;;4875416;29;19924;-80
2022/07/02 09:51:37;;;;;;;;;;;;;;;;;;4855275;29;19931;-79
2022/07/02 09:54:03;;;;;;;;;;;;;;;;;;4865975;29;19974;-79
2022/07/02 09:56:29;;;;;;;;;;;;;;;;;;4871604;29;19979;-80
2022/07/02 09:58:55;;;;;;;;;;;;;;;;;;4859359;29;19931;-79
2022/07/02 10:01:21;;;;;;;;;;;;;;;;;;4860900;29;20022;-80
2022/07/02 10:03:46;;;;;;;;;;;;;;;;;;4851994;29;19927;-80
2022/07/02 10:06:12;;;;;;;;;;;;;;;;;;4853426;29;19970;-80
2022/07/02 10:08:38;;;;;;;;;;;;;;;;;;4844926;29;19974;-80
2022/07/02 10:11:04;;;;;;;;;;;;;;;;;;4849277;28;19931;-81
2022/07/02 10:13:30;;;;;;;;;;;;;;;;;;4885678;29;19945;-81
2022/07/02 10:15:56;;;;;;;;;;;;;;;;;;4856355;29;19934;-82
2022/07/02 10:18:22;;;;;;;;;;;;;;;;;;4857864;29;20527;-81
2022/07/02 10:20:48;;;;;;;;;;;;;;;;;;4842867;29;19927;-80
2022/07/02 10:23:14;;;;;;;;;;;;;;;;;;4857525;29;21252;-82
2022/07/02 10:25:41;;;;;;;;;;;;;;;;;;4847647;29;19935;-82
2022/07/02 10:28:07;;;;;;;;;;;;;;;;;;4853408;29;20441;-81
2022/07/02 10:30:33;;;;;;;;;;;;;;;;;;4854397;29;19923;-81
2022/07/02 10:32:59;;;;;;;;;;;;;;;;;;4867057;29;20817;-81
2022/07/02 10:35:25;;;;;;;;;;;;;;;;;;4874577;29;19938;-80
2022/07/02 10:37:51;;;;;;;;;;;;;;;;;;4865947;29;19923;-80
2022/07/02 10:40:18;;;;;;;;;;;;;;;;;;4894592;29;19988;-81
2022/07/02 10:42:50;;;;;;;;;;;;;;;;;;4868262;28;21113;-82
2022/07/02 10:45:16;;;;;;;;;;;;;;;;;;4857820;29;20366;-80
2022/07/02 10:47:42;;;;;;;;;;;;;;;;;;4865204;29;20405;-80
2022/07/02 10:50:08;;;;;;;;;;;;;;;;;;4850879;29;19931;-81
2022/07/02 10:52:34;;;;;;;;;;;;;;;;;;4870483;29;19935;-82
2022/07/02 10:55:00;;;;;;;;;;;;;;;;;;4851935;29;19927;-81
2022/07/02 10:57:26;;;;;;;;;;;;;;;;;;4850387;29;19926;-81
2022/07/02 10:59:52;;;;;;;;;;;;;;;;;;4863455;29;19930;-81
2022/07/02 11:02:18;;;;;;;;;;;;;;;;;;4864756;29;19990;-81
2022/07/02 11:04:44;;;;;;;;;;;;;;;;;;4887584;29;19970;-81
2022/07/02 11:07:10;;;;;;;;;;;;;;;;;;4872205;29;19927;-81
2022/07/02 11:09:36;;;;;;;;;;;;;;;;;;4870939;29;19947;-81
2022/07/02 11:12:02;;;;;;;;;;;;;;;;;;4868461;29;20315;-81
2022/07/02 11:14:28;;;;;;;;;;;;;;;;;;4858386;29;19931;-81
2022/07/02 11:16:54;;;;;;;;;;;;;;;;;;4869284;29;19927;-81
2022/07/02 11:19:20;;;;;;;;;;;;;;;;;;4875070;29;19926;-81
2022/07/02 11:21:46;;;;;;;;;;;;;;;;;;4867324;29;19935;-81
2022/07/02 11:24:20;;;;;;;;;;;;;;;;;;4860359;29;19930;-79
2022/07/02 11:26:48;;;;;;;;;;;;;;;;;;4875102;29;20038;-80
2022/07/02 11:29:14;;;;;;;;;;;;;;;;;;4869680;29;19953;-80
2022/07/02 11:31:42;;;;;;;;;;;;;;;;;;4868726;29;19935;-81
2022/07/02 11:34:08;;;;;;;;;;;;;;;;;;4853455;29;19924;-80
2022/07/02 11:36:34;;;;;;;;;;;;;;;;;;4873635;29;20883;-81
2022/07/02 11:39:00;;;;;;;;;;;;;;;;;;4869299;29;19962;-80
2022/07/02 11:41:26;;;;;;;;;;;;;;;;;;4859544;29;19931;-80
2022/07/02 11:43:52;;;;;;;;;;;;;;;;;;4868035;29;19938;-80
2022/07/02 11:46:18;;;;;;;;;;;;;;;;;;4876103;29;19938;-80
2022/07/02 11:48:44;;;;;;;;;;;;;;;;;;4869516;29;20078;-80
2022/07/02 11:51:10;;;;;;;;;;;;;;;;;;4873183;29;19927;-80
2022/07/02 11:53:36;;;;;;;;;;;;;;;;;;4874951;29;19931;-81
2022/07/02 11:56:05;;;;;;;;;;;;;;;;;;4841593;29;19927;-81
2022/07/02 11:58:31;;;;;;;;;;;;;;;;;;4857585;29;20006;-80
2022/07/02 12:00:57;;;;;;;;;;;;;;;;;;4868953;29;19938;-80
2022/07/02 12:03:22;;;;;;;;;;;;;;;;;;4896670;29;19930;-80
2022/07/02 12:05:48;;;;;;;;;;;;;;;;;;4865497;29;19923;-80
2022/07/02 12:08:14;;;;;;;;;;;;;;;;;;4896596;29;19931;-81
2022/07/02 12:10:40;;;;;;;;;;;;;;;;;;4880520;29;19923;-80
2022/07/02 12:13:06;;;;;;;;;;;;;;;;;;4876873;29;19942;-80
2022/07/02 12:15:32;;;;;;;;;;;;;;;;;;4856853;29;20062;-79
2022/07/02 12:17:58;;;;;;;;;;;;;;;;;;4841218;29;21698;-81
2022/07/02 12:20:24;;;;;;;;;;;;;;;;;;4861915;29;20510;-80
2022/07/02 12:22:50;;;;;;;;;;;;;;;;;;4860707;29;19931;-80
2022/07/02 12:25:16;;;;;;;;;;;;;;;;;;4872043;29;20556;-80
2022/07/02 12:27:42;;;;;;;;;;;;;;;;;;4845613;29;19938;-80
2022/07/02 12:30:08;;;;;;;;;;;;;;;;;;4877813;29;19927;-80
2022/07/02 12:32:38;;;;;;;;;;;;;;;;;;4870185;29;19931;-80
2022/07/02 12:35:04;;;;;;;;;;;;;;;;;;4885212;29;19977;-80
2022/07/02 12:37:30;;;;;;;;;;;;;;;;;;4887100;29;19978;-81
2022/07/02 12:39:57;;;;;;;;;;;;;;;;;;4886067;29;19931;-80
2022/07/02 12:42:23;;;;;;;;;;;;;;;;;;4897889;29;19923;-80
2022/07/02 12:44:49;;;;;;;;;;;;;;;;;;4891862;29;20504;-80
2022/07/02 12:47:15;;;;;;;;;;;;;;;;;;4876814;29;19931;-80
2022/07/02 12:49:41;;;;;;;;;;;;;;;;;;4908227;29;19970;-81
2022/07/02 12:52:07;;;;;;;;;;;;;;;;;;4889093;29;20343;-80
2022/07/02 12:54:33;;;;;;;;;;;;;;;;;;4899014;29;19933;-80
2022/07/02 12:56:59;;;;;;;;;;;;;;;;;;4865746;29;19931;-80
2022/07/02 12:59:25;;;;;;;;;;;;;;;;;;4883389;29;20002;-81
2022/07/02 13:01:51;;;;;;;;;;;;;;;;;;4874657;29;19970;-81
2022/07/02 13:04:17;;;;;;;;;;;;;;;;;;4872398;29;20647;-81
2022/07/02 13:06:43;;;;;;;;;;;;;;;;;;4851661;29;19985;-80
2022/07/02 13:09:10;;;;;;;;;;;;;;;;;;4856522;29;19931;-80
2022/07/02 13:11:36;;;;;;;;;;;;;;;;;;4850151;29;19934;-81
2022/07/02 13:14:02;;;;;;;;;;;;;;;;;;4860844;29;19923;-81
2022/07/02 13:16:28;;;;;;;;;;;;;;;;;;4839247;29;19931;-81
2022/07/02 13:18:57;;;;;;;;;;;;;;;;;;4841990;29;19947;-81
2022/07/02 13:21:23;;;;;;;;;;;;;;;;;;4863848;29;20011;-81
2022/07/02 13:23:49;;;;;;;;;;;;;;;;;;4846369;29;19931;-81
2022/07/02 13:26:15;;;;;;;;;;;;;;;;;;4841913;29;19935;-80
2022/07/02 13:28:41;;;;;;;;;;;;;;;;;;4863755;29;20019;-80
2022/07/02 13:31:07;;;;;;;;;;;;;;;;;;4850317;29;20029;-80
2022/07/02 13:33:33;;;;;;;;;;;;;;;;;;4847159;29;19927;-81
2022/07/02 13:35:59;;;;;;;;;;;;;;;;;;4875779;29;20602;-80
2022/07/02 13:38:25;;;;;;;;;;;;;;;;;;4867096;29;21350;-81
2022/07/02 13:40:53;;;;;;;;;;;;;;;;;;4850446;28;20108;-81
2022/07/02 13:43:19;;;;;;;;;;;;;;;;;;4860052;29;20471;-81
2022/07/02 13:45:45;;;;;;;;;;;;;;;;;;4879328;29;19927;-81
2022/07/02 13:48:11;;;;;;;;;;;;;;;;;;4866008;29;19927;-81
2022/07/02 13:50:40;;;;;;;;;;;;;;;;;;4864121;29;20421;-81
2022/07/02 13:53:06;;;;;;;;;;;;;;;;;;4869237;29;20035;-80
2022/07/02 13:55:36;;;;;;;;;;;;;;;;;;4871824;29;19926;-81
2022/07/02 13:58:02;;;;;;;;;;;;;;;;;;4864808;29;21205;-81
2022/07/02 14:00:28;;;;;;;;;;;;;;;;;;4843887;29;19994;-78
2022/07/02 14:02:54;;;;;;;;;;;;;;;;;;4850505;29;19931;-79
2022/07/02 14:05:20;;;;;;;;;;;;;;;;;;4869340;29;19931;-79
2022/07/02 14:07:53;;;;;;;;;;;;;;;;;;4870023;29;20066;-79
2022/07/02 14:10:19;;;;;;;;;;;;;;;;;;4857675;29;20350;-80
2022/07/02 14:12:45;;;;;;;;;;;;;;;;;;4874866;29;19926;-79
2022/07/02 14:15:11;;;;;;;;;;;;;;;;;;4874855;29;19967;-81
2022/07/02 14:17:37;;;;;;;;;;;;;;;;;;4879483;29;20482;-79
2022/07/02 14:20:03;;;;;;;;;;;;;;;;;;4851315;29;19923;-79
2022/07/02 14:22:30;;;;;;;;;;;;;;;;;;4869662;29;20390;-79
2022/07/02 14:24:56;;;;;;;;;;;;;;;;;;4875474;29;19982;-79
2022/07/02 14:27:22;;;;;;;;;;;;;;;;;;4865686;29;19934;-79
2022/07/02 14:29:47;;;;;;;;;;;;;;;;;;4876141;29;19931;-79
2022/07/02 14:32:14;;;;;;;;;;;;;;;;;;4883418;29;19963;-79
2022/07/02 14:34:40;;;;;;;;;;;;;;;;;;4862014;29;20060;-79
2022/07/02 14:37:06;;;;;;;;;;;;;;;;;;4860529;29;19977;-80
2022/07/02 14:39:32;;;;;;;;;;;;;;;;;;4863712;29;20375;-79
2022/07/02 14:41:58;;;;;;;;;;;;;;;;;;4862881;29;20498;-79
2022/07/02 14:44:24;;;;;;;;;;;;;;;;;;4879129;29;19923;-79
2022/07/02 14:46:50;;;;;;;;;;;;;;;;;;4861318;29;20375;-79
2022/07/02 14:49:16;;;;;;;;;;;;;;;;;;4858923;29;20017;-79
2022/07/02 14:51:42;;;;;;;;;;;;;;;;;;4862222;29;19942;-79
2022/07/02 14:54:08;;;;;;;;;;;;;;;;;;4878715;29;19931;-79
2022/07/02 14:56:34;;;;;;;;;;;;;;;;;;4865440;29;19951;-80
2022/07/02 14:59:09;;;;;;;;;;;;;;;;;;4860272;29;19938;-79
2022/07/02 15:01:35;;;;;;;;;;;;;;;;;;4882772;29;19923;-79
2022/07/02 15:04:01;;;;;;;;;;;;;;;;;;4863632;29;19978;-79
2022/07/02 15:06:27;;;;;;;;;;;;;;;;;;4877117;29;20323;-80
2022/07/02 15:08:53;;;;;;;;;;;;;;;;;;4878962;29;19939;-79
2022/07/02 15:11:19;;;;;;;;;;;;;;;;;;4859266;29;19931;-79
2022/07/02 15:16:33;;;;;;;;;;;;;;;;;;4873614;29;19970;-79
2022/07/02 15:18:59;;;;;;;;;;;;;;;;;;4873914;29;20463;-79
2022/07/02 15:21:25;;;;;;;;;;;;;;;;;;4883699;29;19934;-79
2022/07/02 15:23:51;;;;;;;;;;;;;;;;;;4877153;29;19971;-79
2022/07/02 15:26:17;;;;;;;;;;;;;;;;;;4874114;29;21164;-79
2022/07/02 15:28:46;;;;;;;;;;;;;;;;;;4865353;29;19934;-79
2022/07/02 15:35:03;;;;;;;;;;;;;;;;;;4834253;29;20096;-83
2022/07/02 15:43:57;;;;;;;;;;;;;;;;;;4791961;29;20298;-84
2022/07/02 15:49:36;;;;;;;;;;;;;;;;;;4813701;29;22580;-84
2022/07/02 15:52:17;;;;;;;;;;;;;;;;;;4816704;29;19943;-84
2022/07/02 15:58:17;;;;;;;;;;;;;;;;;;;;;
2022/07/02 16:13:33;;;;;;;;;;;;;;;;;;4880386;29;19937;-83
2022/07/02 16:19:37;;;;;;;;;;;;;;;;;;4795853;29;19947;-80
2022/07/02 16:22:03;;;;;;;;;;;;;;;;;;4798714;29;20376;-80
2022/07/02 16:24:29;;;;;;;;;;;;;;;;;;4808083;29;19939;-79
2022/07/02 16:26:55;;;;;;;;;;;;;;;;;;4822927;29;20692;-80
2022/07/02 16:29:21;;;;;;;;;;;;;;;;;;4812845;29;19970;-80
2022/07/02 16:31:47;;;;;;;;;;;;;;;;;;4794720;29;19939;-79
2022/07/02 16:34:13;;;;;;;;;;;;;;;;;;4812506;29;22768;-79
2022/07/02 16:36:39;;;;;;;;;;;;;;;;;;4808951;29;20738;-79
2022/07/02 16:39:05;;;;;;;;;;;;;;;;;;4808399;29;19990;-79
2022/07/02 16:41:32;;;;;;;;;;;;;;;;;;4857947;29;19927;-80
2022/07/02 16:44:00;;;;;;;;;;;;;;;;;;4862395;29;19938;-79
2022/07/02 16:46:26;;;;;;;;;;;;;;;;;;4873095;29;19931;-79
2022/07/02 16:48:52;;;;;;;;;;;;;;;;;;4857288;29;19938;-79
2022/07/02 16:51:18;;;;;;;;;;;;;;;;;;4851532;29;19931;-79
2022/07/02 16:53:44;;;;;;;;;;;;;;;;;;4850168;29;20404;-79
2022/07/02 16:56:10;;;;;;;;;;;;;;;;;;4872571;29;19931;-79
2022/07/02 16:58:36;;;;;;;;;;;;;;;;;;4859746;29;19954;-80
2022/07/02 17:01:03;;;;;;;;;;;;;;;;;;4849216;29;19930;-79
2022/07/02 17:03:33;;;;;;;;;;;;;;;;;;4868944;29;20034;-83
2022/07/02 17:05:59;;;;;;;;;;;;;;;;;;4869929;29;19931;-82
2022/07/02 17:08:25;;;;;;;;;;;;;;;;;;4865078;29;19929;-83
2022/07/02 17:11:51;;;;;;;;;;;;;;;;;;4851696;29;19942;-83
2022/07/02 17:13:46;;;;;;;;;;;;;;;;;;4847224;29;19983;-83
2022/07/02 17:16:12;;;;;;;;;;;;;;;;;;4850421;29;19931;-83
2022/07/02 17:18:38;;;;;;;;;;;;;;;;;;4859031;29;19927;-83
2022/07/02 17:21:04;;;;;;;;;;;;;;;;;;4849176;29;19986;-83
2022/07/02 17:23:30;;;;;;;;;;;;;;;;;;4859164;29;19931;-84
2022/07/02 17:25:56;;;;;;;;;;;;;;;;;;4860214;29;19935;-84
2022/07/02 17:28:22;;;;;;;;;;;;;;;;;;4850587;29;19927;-83